Archival Weather

Heathrow

London, United Kingdom (EGLL)

Report from: Sunday, March 19, 2023 7:20 PM GMT
Current time: Saturday, June 22, 2024 12:20 AM BST

Current weather – Weather history – Daily summaries
Weather forecast

Temperature9.0°C (48.2°F)
Wind chill7.0°C (44.6°F)
Dew point4.0°C (39.2°F)
Winds 7 kts (3.6 m/s, 8.1 mph) Vrb
Winds variableWinds variable from South-Southeast (160°) to West-Southwest (250°)
Visibility6.2 mi. (10 km)
Clouds Few clouds 4,400 ft. (1,341 m)
Altimeter30.06 in.Hg (1018 mB)
Relative humidity71 %
Density altitude-760 ft. (-232 m)
Remarks Fully automated report
Corrected report
No significant changes expected in the next two hours
Flight conditions Visual Meteorological Conditions
Raw dataCOR EGLL 191920Z AUTO 20007KT 160V250 9999 FEW044 09/04 Q1018 NOSIG
An error has occurred. This application may no longer respond until reloaded. Reload 🗙